Weather at Dennis F Cantrell Field [CLOSED]

Public forecast

Using degrees Fahrenheit for public forecast. Weather courtesy of forecast.io.

Closest aviation weather report (METAR) to Dennis F Cantrell Field

Closest report is Little Rock Air Force Base, 16.7 nm (31.0 km) SE. Retrieved 2021/06/23 00:56 UTC (1 hour ago):

KLRF 230056Z AUTO 06003KT 10SM CLR 24/10 A3000 RMK AO2 SLP160 T02400103

Closest aviation forecast (TAF) to Dennis F Cantrell Field

Closest forecast is Little Rock Air Force Base, 16.7 nm (31.0 km) SE. Retrieved 2021-06-23 23:57 UTC (0 seconds ago):

TAF TAF KLRF 222300Z 2223/2405 08006KT 9999 FEW140 QNH2998INS BECMG 2315/2316 16006KT 9999 SCT120 QNH2994INS BECMG 2402/2403 14006KT 9999 FEW050 SCT120 QNH2999INS TX30/2320Z TN15/2310Z